Time;durP1;ratioP1;P1;durP2;ratioP2;P2;SDS_P1;SDS_P2;PMS_P1;PMS_P2;Temp;Humidity;BMP_temperature;BMP_pressure;BME280_temperature;BME280_humidity;BME280_pressure;Samples;Min_cycle;Max_cycle;Signal;HPM_P1;HPM_P2
2022/09/02 00:00:45;;;;;;;4.77;1.30;;;17.60;99.90;;;;;;5033676;28;20189;-40
2022/09/02 00:03:12;;;;;;;2.70;1.10;;;17.60;99.90;;;;;;5033573;28;20187;-40
2022/09/02 00:05:38;;;;;;;2.90;1.20;;;17.60;99.90;;;;;;5015880;28;20208;-40
2022/09/02 00:08:05;;;;;;;2.50;1.40;;;17.60;99.90;;;;;;5015692;28;20598;-38
2022/09/02 00:10:32;;;;;;;2.17;1.00;;;17.50;99.90;;;;;;5033685;28;20181;-38
2022/09/02 00:12:58;;;;;;;1.13;1.03;;;17.50;99.90;;;;;;5033443;28;20201;-40
2022/09/02 00:15:24;;;;;;;1.20;0.90;;;17.50;99.90;;;;;;5033642;28;20607;-40
2022/09/02 00:17:50;;;;;;;2.20;1.20;;;17.50;99.90;;;;;;5033706;28;20530;-41
2022/09/02 00:20:17;;;;;;;3.77;1.10;;;17.50;99.90;;;;;;5033389;28;20185;-43
2022/09/02 00:22:42;;;;;;;1.13;0.93;;;17.40;99.90;;;;;;5033166;28;20291;-41
2022/09/02 00:25:09;;;;;;;2.00;1.17;;;17.40;99.90;;;;;;5033351;28;20653;-42
2022/09/02 00:27:37;;;;;;;3.33;1.23;;;17.40;99.90;;;;;;5033534;28;20206;-44
2022/09/02 00:30:04;;;;;;;1.87;1.03;;;17.30;99.90;;;;;;5033492;28;20220;-42
2022/09/02 00:32:30;;;;;;;3.60;1.03;;;17.30;99.90;;;;;;5033056;28;20212;-43
2022/09/02 00:34:56;;;;;;;4.43;1.10;;;17.20;99.90;;;;;;5033279;28;20177;-43
2022/09/02 00:37:23;;;;;;;1.53;1.20;;;17.20;99.90;;;;;;5033467;28;20223;-43
2022/09/02 00:39:50;;;;;;;2.97;1.40;;;17.20;99.90;;;;;;5033718;28;20630;-42
2022/09/02 00:42:16;;;;;;;1.70;1.13;;;17.10;99.90;;;;;;5033666;28;20609;-44
2022/09/02 00:44:41;;;;;;;2.77;1.23;;;17.10;99.90;;;;;;5015394;28;20185;-42
2022/09/02 00:47:07;;;;;;;2.90;1.10;;;17.10;99.90;;;;;;5033327;28;20292;-44
2022/09/02 00:49:37;;;;;;;4.17;1.17;;;17.00;99.90;;;;;;5034357;28;20207;-44
2022/09/02 00:52:06;;;;;;;2.93;1.30;;;17.00;99.90;;;;;;5038726;28;20270;-43
2022/09/02 00:54:38;;;;;;;2.73;1.30;;;16.90;99.90;;;;;;5038127;28;20203;-44
2022/09/02 00:57:08;;;;;;;2.77;1.00;;;16.90;99.90;;;;;;5038392;28;20169;-44
2022/09/02 00:59:37;;;;;;;1.57;1.10;;;16.80;99.90;;;;;;5038409;28;20188;-45
2022/09/02 01:02:02;;;;;;;6.83;1.20;;;16.80;99.90;;;;;;5038051;28;20209;-40
2022/09/02 01:04:28;;;;;;;3.37;1.07;;;16.80;99.90;;;;;;5036975;28;20196;-39
2022/09/02 01:06:53;;;;;;;3.47;1.10;;;16.70;99.90;;;;;;5037082;28;20177;-40
2022/09/02 01:09:20;;;;;;;4.53;1.00;;;16.70;99.90;;;;;;5036688;28;20205;-40
2022/09/02 01:11:50;;;;;;;3.97;1.30;;;16.70;99.90;;;;;;5037187;28;20295;-40
2022/09/02 01:14:16;;;;;;;1.53;1.07;;;16.70;99.90;;;;;;5037285;28;20187;-40
2022/09/02 01:16:50;;;;;;;9.07;1.30;;;16.70;99.90;;;;;;5036517;28;20575;-42
2022/09/02 01:19:25;;;;;;;4.20;1.20;;;16.70;99.90;;;;;;5036877;28;20528;-40
2022/09/02 01:21:53;;;;;;;1.33;1.13;;;16.70;99.90;;;;;;5036712;28;20243;-39
2022/09/02 01:24:21;;;;;;;4.13;1.33;;;16.70;99.90;;;;;;5036472;28;20291;-41
2022/09/02 01:26:51;;;;;;;1.43;0.90;;;16.70;99.90;;;;;;5036512;28;20188;-39
2022/09/02 01:29:17;;;;;;;2.07;1.20;;;16.70;99.90;;;;;;5036693;28;20215;-40
2022/09/02 01:31:43;;;;;;;7.60;1.40;;;16.70;99.90;;;;;;5036783;28;20291;-40
2022/09/02 01:34:09;;;;;;;1.97;1.10;;;16.70;99.90;;;;;;5036749;28;20185;-40
2022/09/02 01:36:39;;;;;;;2.90;1.53;;;16.70;99.90;;;;;;5036302;28;20547;-41
2022/09/02 01:39:05;;;;;;;1.90;1.10;;;16.70;99.90;;;;;;5036639;28;20254;-39
2022/09/02 01:41:31;;;;;;;1.37;1.17;;;16.70;99.90;;;;;;5036430;28;20204;-43
2022/09/02 01:43:56;;;;;;;3.67;1.07;;;16.70;99.90;;;;;;5036567;28;20671;-44
2022/09/02 01:46:22;;;;;;;1.63;1.23;;;16.70;99.90;;;;;;5036362;28;20196;-43
2022/09/02 01:48:49;;;;;;;1.83;1.17;;;16.70;99.90;;;;;;5036332;28;20255;-43
2022/09/02 01:51:18;;;;;;;2.00;1.40;;;16.70;99.90;;;;;;5038912;28;20200;-43
2022/09/02 01:53:43;;;;;;;2.73;1.37;;;16.70;99.90;;;;;;5035998;28;20259;-43
2022/09/02 01:56:09;;;;;;;2.17;1.10;;;16.70;99.90;;;;;;5035944;28;20626;-44
2022/09/02 01:58:35;;;;;;;6.60;1.33;;;16.70;99.90;;;;;;5036705;28;20204;-43
2022/09/02 02:01:01;;;;;;;1.00;0.80;;;16.70;99.90;;;;;;5035947;28;20213;-44
2022/09/02 02:03:27;;;;;;;2.77;1.30;;;16.60;99.90;;;;;;5036497;28;20233;-43
2022/09/02 02:05:54;;;;;;;1.67;1.23;;;16.60;99.90;;;;;;5036917;28;20524;-44
2022/09/02 02:08:20;;;;;;;1.53;1.10;;;16.50;99.90;;;;;;5037546;28;20216;-44
2022/09/02 02:10:47;;;;;;;3.47;1.30;;;16.60;99.90;;;;;;5036690;28;20184;-42
2022/09/02 02:13:12;;;;;;;1.93;1.10;;;16.60;99.90;;;;;;5035032;28;20204;-44
2022/09/02 02:15:40;;;;;;;2.50;1.10;;;16.60;99.90;;;;;;5035686;28;20200;-43
2022/09/02 02:18:06;;;;;;;3.07;1.20;;;16.60;99.90;;;;;;5035523;28;20223;-44
2022/09/02 02:20:32;;;;;;;2.00;1.10;;;16.60;99.90;;;;;;5035768;28;20181;-44
2022/09/02 02:22:58;;;;;;;4.53;1.27;;;16.60;99.90;;;;;;5035350;28;20193;-43
2022/09/02 02:25:24;;;;;;;3.53;1.30;;;16.60;99.90;;;;;;5035348;28;20546;-44
2022/09/02 02:27:50;;;;;;;1.30;1.20;;;16.60;99.90;;;;;;5035433;28;20177;-42
2022/09/02 02:30:16;;;;;;;2.77;1.03;;;16.60;99.90;;;;;;5035498;28;20220;-43
2022/09/02 02:32:43;;;;;;;4.23;1.50;;;16.60;99.90;;;;;;5035168;28;20673;-42
2022/09/02 02:35:10;;;;;;;2.70;1.23;;;16.60;99.90;;;;;;5035667;28;20177;-39
2022/09/02 02:37:36;;;;;;;3.37;1.30;;;16.60;99.90;;;;;;5035448;28;20572;-40
2022/09/02 02:40:03;;;;;;;3.20;1.63;;;16.50;99.90;;;;;;5035379;28;20266;-40
2022/09/02 02:42:29;;;;;;;1.63;1.20;;;16.50;99.90;;;;;;5035247;28;20207;-40
2022/09/02 02:44:55;;;;;;;3.17;1.20;;;16.50;99.90;;;;;;5035050;28;20184;-40
2022/09/02 02:47:21;;;;;;;2.73;1.30;;;16.50;99.90;;;;;;5035244;28;20209;-40
2022/09/02 02:49:47;;;;;;;2.03;1.20;;;16.40;99.90;;;;;;5017361;28;20208;-40
2022/09/02 02:52:13;;;;;;;2.43;1.30;;;16.40;99.90;;;;;;5034885;28;20204;-41
2022/09/02 02:54:40;;;;;;;1.00;1.00;;;16.30;99.90;;;;;;5035119;28;20181;-41
2022/09/02 02:57:06;;;;;;;3.53;1.10;;;16.30;99.90;;;;;;5035126;28;20180;-39
2022/09/02 02:59:32;;;;;;;2.10;1.30;;;16.30;99.90;;;;;;5034974;28;20591;-40
2022/09/02 03:01:58;;;;;;;7.70;1.37;;;16.20;99.90;;;;;;5034707;28;20205;-40
2022/09/02 03:04:24;;;;;;;4.50;1.57;;;16.30;99.90;;;;;;5017107;28;20185;-40
2022/09/02 03:06:50;;;;;;;4.53;1.33;;;16.30;99.90;;;;;;5034646;28;20572;-39
2022/09/02 03:09:16;;;;;;;2.87;1.33;;;16.20;99.90;;;;;;5034772;28;20248;-42
2022/09/02 03:11:41;;;;;;;4.97;1.40;;;16.20;99.90;;;;;;5034831;28;20610;-41
2022/09/02 03:14:07;;;;;;;2.83;1.20;;;16.20;99.90;;;;;;5034566;28;20217;-41
2022/09/02 03:16:34;;;;;;;3.33;1.20;;;16.30;99.90;;;;;;5034323;28;20203;-40
2022/09/02 03:19:00;;;;;;;8.17;1.37;;;16.30;99.90;;;;;;5034561;28;20185;-40
2022/09/02 03:21:26;;;;;;;3.30;1.23;;;16.30;99.90;;;;;;5036536;28;20205;-44
2022/09/02 03:23:51;;;;;;;1.93;1.27;;;16.20;99.90;;;;;;5039262;28;20323;-45
2022/09/02 03:26:22;;;;;;;4.70;1.10;;;16.20;99.90;;;;;;5040013;28;20177;-46
2022/09/02 03:28:48;;;;;;;1.57;1.13;;;16.20;99.90;;;;;;5039996;28;20192;-45
2022/09/02 03:31:17;;;;;;;2.07;1.20;;;16.20;99.90;;;;;;5039946;28;20208;-44
2022/09/02 03:33:42;;;;;;;1.63;1.27;;;16.20;99.90;;;;;;5039776;28;20177;-44
2022/09/02 03:36:17;;;;;;;2.70;1.30;;;16.20;99.90;;;;;;5040296;28;20640;-44
2022/09/02 03:38:43;;;;;;;2.20;1.07;;;16.20;99.90;;;;;;5039424;28;20604;-44
2022/09/02 03:41:09;;;;;;;9.20;1.57;;;16.20;99.90;;;;;;5037870;28;20197;-40
2022/09/02 03:43:34;;;;;;;4.87;1.13;;;16.20;99.90;;;;;;5034114;28;20189;-41
2022/09/02 03:46:00;;;;;;;5.70;1.40;;;16.20;99.90;;;;;;5034012;28;20181;-41
2022/09/02 03:48:25;;;;;;;2.10;1.20;;;16.20;99.90;;;;;;5033790;28;20205;-40
2022/09/02 03:50:51;;;;;;;3.07;1.73;;;16.20;99.90;;;;;;5033827;28;20318;-40
2022/09/02 03:53:16;;;;;;;3.20;1.20;;;16.20;99.90;;;;;;5033892;28;20173;-39
2022/09/02 03:55:42;;;;;;;2.97;1.20;;;16.20;99.90;;;;;;5034076;28;20173;-41
2022/09/02 03:58:07;;;;;;;2.07;1.17;;;16.10;99.90;;;;;;5033678;28;20267;-41
2022/09/02 04:00:33;;;;;;;4.33;1.20;;;16.10;99.90;;;;;;5039798;28;20236;-45
2022/09/02 04:03:00;;;;;;;2.17;1.10;;;16.10;99.90;;;;;;5041213;28;20197;-45
2022/09/02 04:05:26;;;;;;;2.60;1.40;;;16.10;99.90;;;;;;5041357;28;20648;-44
2022/09/02 04:07:52;;;;;;;3.27;1.03;;;16.10;99.90;;;;;;5024352;28;20211;-45
2022/09/02 04:10:20;;;;;;;5.80;1.17;;;16.00;99.90;;;;;;5041364;28;20758;-44
2022/09/02 04:12:46;;;;;;;2.70;1.20;;;16.00;99.90;;;;;;5036827;28;20204;-41
2022/09/02 04:15:12;;;;;;;1.77;1.00;;;15.90;99.90;;;;;;5033518;28;21335;-40
2022/09/02 04:17:40;;;;;;;3.87;1.20;;;15.90;99.90;;;;;;5033561;28;20165;-40
2022/09/02 04:20:08;;;;;;;3.40;1.40;;;15.80;99.90;;;;;;5033645;28;20205;-39
2022/09/02 04:22:34;;;;;;;2.33;1.07;;;15.80;99.90;;;;;;5033354;28;20669;-39
2022/09/02 04:25:00;;;;;;;2.07;1.30;;;15.80;99.90;;;;;;5033354;28;20264;-39
2022/09/02 04:27:25;;;;;;;1.93;1.13;;;15.80;99.90;;;;;;5033605;28;20629;-39
2022/09/02 04:29:51;;;;;;;6.00;1.30;;;15.80;99.90;;;;;;5033463;28;20205;-40
2022/09/02 04:32:17;;;;;;;3.33;1.43;;;15.80;99.90;;;;;;5033199;28;20729;-38
2022/09/02 04:34:42;;;;;;;1.93;1.10;;;15.80;99.90;;;;;;5034074;28;20181;-39
2022/09/02 04:37:08;;;;;;;2.47;1.07;;;15.80;99.90;;;;;;5036700;28;20633;-39
2022/09/02 04:39:33;;;;;;;1.30;1.10;;;15.80;99.90;;;;;;5037461;28;20173;-40
2022/09/02 04:41:59;;;;;;;1.73;1.20;;;15.70;99.90;;;;;;5037236;28;20204;-39
2022/09/02 04:44:25;;;;;;;1.97;1.20;;;15.80;99.90;;;;;;5037624;28;20177;-41
2022/09/02 04:46:51;;;;;;;2.67;1.60;;;15.80;99.90;;;;;;5043195;28;20180;-45
2022/09/02 04:49:17;;;;;;;1.57;1.23;;;15.80;99.90;;;;;;5043488;28;20258;-40
2022/09/02 04:51:43;;;;;;;4.53;1.17;;;15.80;99.90;;;;;;5037196;28;20200;-39
2022/09/02 04:54:08;;;;;;;3.60;1.10;;;15.80;99.90;;;;;;5037158;28;20268;-40
2022/09/02 04:56:34;;;;;;;5.73;1.57;;;15.80;99.90;;;;;;5037631;28;20173;-40
2022/09/02 04:59:00;;;;;;;2.07;1.27;;;15.70;99.90;;;;;;5037062;28;20177;-39
2022/09/02 05:01:30;;;;;;;1.83;1.20;;;15.70;99.90;;;;;;5037005;28;20710;-37
2022/09/02 05:03:57;;;;;;;1.93;1.40;;;15.70;99.90;;;;;;5037633;28;20169;-42
2022/09/02 05:06:25;;;;;;;2.30;1.50;;;15.70;99.90;;;;;;5037824;28;20188;-40
2022/09/02 05:08:52;;;;;;;3.50;1.53;;;15.70;99.90;;;;;;5037048;28;20599;-40
2022/09/02 05:11:21;;;;;;;2.23;1.50;;;15.80;99.90;;;;;;5037255;28;20200;-40
2022/09/02 05:13:50;;;;;;;1.37;1.00;;;15.80;99.90;;;;;;5019304;28;20177;-40
2022/09/02 05:16:22;;;;;;;5.67;1.90;;;15.80;99.90;;;;;;5039392;28;20571;-43
2022/09/02 05:18:49;;;;;;;3.57;1.40;;;15.80;99.90;;;;;;5036741;28;20271;-44
2022/09/02 05:21:15;;;;;;;2.47;1.73;;;15.80;99.90;;;;;;5036889;28;20686;-43
2022/09/02 05:23:41;;;;;;;1.93;1.33;;;15.80;99.90;;;;;;5036773;28;20173;-43
2022/09/02 05:26:08;;;;;;;8.30;1.83;;;15.80;99.90;;;;;;5036694;28;20180;-43
2022/09/02 05:28:34;;;;;;;4.20;1.73;;;15.90;99.90;;;;;;5036716;28;20350;-42
2022/09/02 05:31:04;;;;;;;2.67;1.37;;;16.00;99.90;;;;;;5036568;28;20591;-41
2022/09/02 05:33:32;;;;;;;2.10;1.27;;;16.00;99.90;;;;;;5036452;28;20653;-44
2022/09/02 05:35:58;;;;;;;2.70;1.50;;;16.10;99.90;;;;;;5036721;28;20184;-44
2022/09/02 05:38:24;;;;;;;2.10;1.30;;;16.10;99.90;;;;;;5036422;28;20255;-43
2022/09/02 05:40:50;;;;;;;10.20;1.77;;;16.10;99.90;;;;;;5036700;28;20185;-41
2022/09/02 05:43:16;;;;;;;4.43;1.97;;;16.20;99.90;;;;;;5040623;28;20191;-43
2022/09/02 05:45:42;;;;;;;6.27;1.80;;;16.20;99.90;;;;;;5043980;28;20180;-45
2022/09/02 05:50:54;;;;;;;1.73;1.37;;;16.20;99.90;;;;;;5042616;28;20621;-44
2022/09/02 05:53:20;;;;;;;1.80;1.30;;;16.20;99.90;;;;;;5040222;28;20248;-42
2022/09/02 05:55:45;;;;;;;2.07;1.40;;;16.20;99.90;;;;;;5036282;28;20173;-43
2022/09/02 05:58:11;;;;;;;4.73;1.33;;;16.20;99.90;;;;;;5036748;28;20633;-42
2022/09/02 06:00:38;;;;;;;4.17;1.50;;;16.20;99.90;;;;;;5036131;28;20178;-42
2022/09/02 06:03:04;;;;;;;3.60;1.50;;;16.20;99.90;;;;;;5036386;28;20178;-40
2022/09/02 06:05:29;;;;;;;2.57;1.50;;;16.20;99.90;;;;;;5036317;28;20259;-40
2022/09/02 06:07:55;;;;;;;4.20;1.50;;;16.20;99.90;;;;;;5036421;28;20204;-40
2022/09/02 06:10:20;;;;;;;4.30;1.70;;;16.20;99.90;;;;;;5035963;28;20235;-40
2022/09/02 06:12:46;;;;;;;1.83;1.30;;;16.30;99.90;;;;;;5036165;28;20528;-41
2022/09/02 06:15:12;;;;;;;3.47;1.37;;;16.30;99.90;;;;;;5035884;28;20540;-40
2022/09/02 06:17:37;;;;;;;2.83;1.70;;;16.40;99.90;;;;;;5036639;28;20181;-41
2022/09/02 06:20:04;;;;;;;3.37;1.50;;;16.50;99.90;;;;;;5036250;28;20219;-40
2022/09/02 06:22:30;;;;;;;4.70;1.50;;;16.60;99.90;;;;;;5036062;28;20209;-39
2022/09/02 06:24:55;;;;;;;5.20;1.57;;;16.70;99.90;;;;;;5035711;28;20629;-40
2022/09/02 06:27:21;;;;;;;1.50;1.30;;;16.80;99.90;;;;;;5035840;28;20181;-40
2022/09/02 06:29:47;;;;;;;2.23;1.20;;;16.90;99.90;;;;;;5035526;28;20200;-41
2022/09/02 06:32:12;;;;;;;4.80;1.70;;;17.00;99.90;;;;;;5035666;28;20216;-40
2022/09/02 06:34:38;;;;;;;7.97;1.93;;;17.10;99.90;;;;;;5036285;28;20572;-39
2022/09/02 06:37:04;;;;;;;5.13;1.63;;;17.30;99.90;;;;;;5035922;28;20223;-40
2022/09/02 06:39:29;;;;;;;5.77;1.63;;;17.40;99.90;;;;;;5017685;28;20597;-40
2022/09/02 06:41:55;;;;;;;4.33;1.67;;;17.50;99.90;;;;;;5035260;28;20806;-40
2022/09/02 06:44:21;;;;;;;2.43;1.37;;;17.70;99.90;;;;;;5038843;28;20224;-44
2022/09/02 06:46:52;;;;;;;2.00;1.20;;;17.80;99.90;;;;;;5021883;28;20177;-44
2022/09/02 06:49:18;;;;;;;5.03;1.40;;;17.90;99.90;;;;;;5039643;28;20201;-42
2022/09/02 06:51:46;;;;;;;3.10;1.60;;;18.00;99.90;;;;;;5039584;28;20272;-43
2022/09/02 06:54:15;;;;;;;2.23;1.40;;;18.00;99.90;;;;;;5039670;28;20173;-45
2022/09/02 06:56:42;;;;;;;3.30;1.47;;;18.10;99.90;;;;;;5038573;28;20188;-45
2022/09/02 06:59:08;;;;;;;2.30;1.57;;;18.10;99.90;;;;;;5038794;28;20637;-43
2022/09/02 07:01:35;;;;;;;6.03;1.70;;;18.10;99.90;;;;;;5038894;28;20258;-44
2022/09/02 07:06:48;;;;;;;3.87;1.70;;;18.30;99.90;;;;;;5039494;28;20185;-42
2022/09/02 07:09:17;;;;;;;3.87;1.60;;;18.30;99.90;;;;;;5039061;28;20239;-44
2022/09/02 07:11:47;;;;;;;7.33;1.80;;;18.30;99.90;;;;;;5038975;28;20222;-44
2022/09/02 07:14:18;;;;;;;4.13;1.67;;;18.40;99.90;;;;;;5039414;28;20180;-45
2022/09/02 07:16:48;;;;;;;3.63;1.97;;;18.60;99.90;;;;;;5038256;28;20219;-45
2022/09/02 07:19:14;;;;;;;2.73;1.57;;;18.70;99.90;;;;;;5039658;28;20172;-45
2022/09/02 07:21:40;;;;;;;7.00;1.53;;;18.80;99.90;;;;;;5039744;28;20271;-43
2022/09/02 07:24:07;;;;;;;5.10;1.50;;;19.00;99.90;;;;;;5040412;28;20184;-44
2022/09/02 07:26:33;;;;;;;3.57;1.50;;;19.20;99.90;;;;;;5039803;28;20193;-44
2022/09/02 07:28:58;;;;;;;3.03;1.57;;;19.40;99.90;;;;;;5039809;28;20263;-44
2022/09/02 07:31:26;;;;;;;4.90;1.70;;;19.60;99.90;;;;;;5041155;28;20196;-45
2022/09/02 07:33:52;;;;;;;6.20;1.67;;;19.80;99.90;;;;;;5040439;28;20649;-44
2022/09/02 07:36:20;;;;;;;4.07;1.70;;;19.80;99.90;;;;;;5040793;28;20200;-43
2022/09/02 07:38:46;;;;;;;6.77;1.47;;;19.90;99.90;;;;;;5040706;28;20184;-45
2022/09/02 07:41:12;;;;;;;5.10;1.87;;;19.90;99.90;;;;;;5041003;28;20200;-44
2022/09/02 07:43:39;;;;;;;7.70;1.93;;;19.70;99.90;;;;;;5023030;28;20206;-44
2022/09/02 07:46:05;;;;;;;1.90;1.50;;;19.80;99.90;;;;;;5042442;28;20185;-44
2022/09/02 07:48:32;;;;;;;3.33;1.90;;;19.90;99.90;;;;;;5041988;28;20205;-44
2022/09/02 07:50:58;;;;;;;2.77;1.40;;;20.00;99.90;;;;;;5041349;28;20559;-44
2022/09/02 07:53:25;;;;;;;4.67;1.80;;;20.10;99.90;;;;;;5042090;28;20191;-44
2022/09/02 07:55:50;;;;;;;5.00;1.80;;;20.20;99.90;;;;;;5041831;28;20172;-45
2022/09/02 07:58:19;;;;;;;4.33;1.87;;;20.30;99.90;;;;;;5041394;28;20180;-45
2022/09/02 08:00:46;;;;;;;3.70;1.80;;;20.40;99.90;;;;;;5041957;28;20181;-45
2022/09/02 08:03:13;;;;;;;3.80;1.67;;;20.50;99.90;;;;;;5041590;28;20256;-44
2022/09/02 08:05:40;;;;;;;4.13;1.80;;;20.70;99.90;;;;;;5041346;28;20669;-45
2022/09/02 08:08:07;;;;;;;5.50;1.90;;;20.80;99.90;;;;;;5041666;28;20208;-45
2022/09/02 08:10:34;;;;;;;4.00;1.70;;;20.80;99.90;;;;;;5041199;28;20303;-45
2022/09/02 08:13:00;;;;;;;3.90;1.53;;;20.90;99.90;;;;;;5040732;28;20246;-40
2022/09/02 08:15:27;;;;;;;4.00;1.90;;;21.00;99.90;;;;;;5033620;28;20189;-39
2022/09/02 08:17:54;;;;;;;2.07;1.67;;;21.10;99.90;;;;;;5033504;28;20667;-39
2022/09/02 08:20:20;;;;;;;4.57;1.70;;;21.10;99.90;;;;;;5016798;28;20187;-40
2022/09/02 08:22:46;;;;;;;9.77;2.20;;;21.20;99.90;;;;;;5033446;28;20287;-38
2022/09/02 08:25:12;;;;;;;5.47;1.50;;;21.30;99.90;;;;;;5033655;28;20181;-40
2022/09/02 08:27:38;;;;;;;2.70;1.50;;;21.40;99.90;;;;;;5033506;28;20177;-40
2022/09/02 08:30:08;;;;;;;4.10;1.50;;;21.50;99.90;;;;;;5015539;28;20626;-41
2022/09/02 08:32:34;;;;;;;4.43;1.70;;;21.60;99.90;;;;;;5033755;28;20196;-40
2022/09/02 08:35:01;;;;;;;3.00;1.50;;;21.70;99.90;;;;;;5033465;28;20248;-39
2022/09/02 08:37:29;;;;;;;6.43;1.77;;;21.80;99.90;;;;;;5033536;28;20173;-40
2022/09/02 08:39:55;;;;;;;2.53;1.43;;;21.90;99.90;;;;;;5033275;28;20181;-39
2022/09/02 08:42:26;;;;;;;2.83;1.60;;;22.00;99.90;;;;;;5033653;28;20199;-39
2022/09/02 08:44:57;;;;;;;1.70;1.60;;;22.20;99.90;;;;;;5033607;28;20223;-40
2022/09/02 08:47:28;;;;;;;5.97;1.70;;;22.30;99.90;;;;;;5033735;28;20521;-39
2022/09/02 08:49:59;;;;;;;4.57;1.70;;;22.40;99.90;;;;;;5033776;28;20255;-40
2022/09/02 08:52:50;;;;;;;2.67;1.60;;;22.40;99.90;;;;;;5033474;28;20322;-40
2022/09/02 08:55:25;;;;;;;3.43;1.60;;;22.40;99.90;;;;;;4992874;28;20189;-40
2022/09/02 08:57:51;;;;;;;7.47;1.83;;;22.60;99.90;;;;;;5033283;28;20267;-40
2022/09/02 09:00:17;;;;;;;6.87;1.80;;;22.70;99.90;;;;;;5033888;28;20307;-39
2022/09/02 09:03:15;;;;;;;2.80;1.40;;;22.80;99.90;;;;;;5033212;28;20231;-40
2022/09/02 09:06:04;;;;;;;3.33;1.73;;;22.90;99.90;;;;;;5033322;28;20251;-40
2022/09/02 09:08:42;;;;;;;6.83;1.67;;;22.90;99.90;;;;;;5032548;28;20205;-39
2022/09/02 09:11:35;;;;;;;1.87;1.63;;;23.10;99.90;;;;;;5033307;28;20271;-39
2022/09/02 09:14:17;;;;;;;2.17;1.53;;;23.20;99.90;;;;;;5033206;28;20211;-39
2022/09/02 09:16:57;;;;;;;5.43;1.47;;;23.30;99.90;;;;;;5033279;28;20200;-38
2022/09/02 09:19:36;;;;;;;1.37;1.27;;;23.40;99.90;;;;;;5033233;28;20181;-41
2022/09/02 09:22:02;;;;;;;4.47;1.33;;;23.50;99.90;;;;;;5034630;28;20201;-40
2022/09/02 09:24:44;;;;;;;6.80;1.53;;;23.60;99.90;;;;;;5036850;28;20188;-39
2022/09/02 09:27:18;;;;;;;4.93;1.90;;;23.60;99.90;;;;;;5036990;28;20181;-41
2022/09/02 09:29:44;;;;;;;2.67;1.30;;;23.70;99.90;;;;;;5037050;28;20699;-39
2022/09/02 09:32:35;;;;;;;5.20;1.50;;;23.80;99.90;;;;;;5036466;28;20196;-37
2022/09/02 09:35:06;;;;;;;3.33;1.30;;;23.90;99.90;;;;;;5036577;28;20178;-40
2022/09/02 09:37:39;;;;;;;4.20;1.40;;;23.90;99.90;;;;;;5036509;28;20180;-39
2022/09/02 09:40:19;;;;;;;3.87;1.57;;;24.00;99.90;;;;;;5036523;28;20209;-40
2022/09/02 09:42:46;;;;;;;4.37;1.30;;;24.10;99.90;;;;;;5036638;28;20205;-41
2022/09/02 09:45:24;;;;;;;1.50;1.33;;;24.10;99.90;;;;;;5036664;28;20652;-40
2022/09/02 09:48:15;;;;;;;2.33;1.20;;;24.20;99.90;;;;;;5036510;28;20173;-41
2022/09/02 09:50:42;;;;;;;2.03;1.20;;;24.30;99.90;;;;;;5036263;28;20184;-40
2022/09/02 09:53:16;;;;;;;2.90;1.47;;;24.40;99.80;;;;;;5036541;28;20537;-40
2022/09/02 09:56:13;;;;;;;1.93;1.47;;;24.50;99.90;;;;;;5036719;28;20684;-40
2022/09/02 09:58:38;;;;;;;1.60;1.30;;;24.60;99.70;;;;;;5036315;28;20384;-41
2022/09/02 10:01:24;;;;;;;5.00;1.43;;;24.70;99.90;;;;;;5036451;28;20228;-40
2022/09/02 10:03:54;;;;;;;4.57;1.40;;;24.80;98.40;;;;;;5036292;28;20173;-38
2022/09/02 10:06:32;;;;;;;2.87;1.37;;;24.80;99.20;;;;;;5036342;28;20180;-40
2022/09/02 10:09:02;;;;;;;1.93;1.20;;;24.90;98.70;;;;;;5035968;28;20196;-38
2022/09/02 10:11:30;;;;;;;1.33;1.10;;;25.00;98.40;;;;;;5036165;28;20568;-40
2022/09/02 10:14:10;;;;;;;1.70;1.07;;;25.20;98.90;;;;;;5035975;28;20260;-39
2022/09/02 10:16:55;;;;;;;5.47;1.50;;;25.20;98.90;;;;;;5036045;28;20266;-41
2022/09/02 10:19:35;;;;;;;2.80;1.20;;;25.30;98.80;;;;;;5036015;28;20192;-39
2022/09/02 10:22:19;;;;;;;1.90;1.20;;;25.30;98.50;;;;;;5036428;28;20246;-38
2022/09/02 10:25:06;;;;;;;3.47;1.40;;;25.40;98.10;;;;;;5035904;28;20165;-39
2022/09/02 10:27:45;;;;;;;2.47;1.60;;;25.60;96.70;;;;;;5036015;28;20165;-40
2022/09/02 10:30:19;;;;;;;2.63;1.30;;;25.70;96.50;;;;;;5035368;28;20189;-39
2022/09/02 10:33:05;;;;;;;2.57;1.10;;;25.80;96.90;;;;;;5035774;28;20212;-38
2022/09/02 10:35:43;;;;;;;6.57;1.00;;;25.80;95.30;;;;;;5017785;28;20670;-38
2022/09/02 10:38:31;;;;;;;2.93;1.27;;;25.90;97.90;;;;;;5017849;28;20181;-38
2022/09/02 10:41:16;;;;;;;5.77;1.40;;;26.00;96.70;;;;;;5035587;28;20193;-36
2022/09/02 10:43:47;;;;;;;1.93;1.17;;;26.00;96.20;;;;;;5035543;28;20181;-39
2022/09/02 10:46:19;;;;;;;1.53;1.23;;;26.10;95.40;;;;;;5035365;28;20657;-40
2022/09/02 10:49:09;;;;;;;2.53;1.20;;;26.10;95.60;;;;;;5035596;28;20205;-39
2022/09/02 10:51:50;;;;;;;1.97;0.97;;;26.20;95.20;;;;;;5035523;28;20209;-40
2022/09/02 10:54:19;;;;;;;3.33;1.03;;;26.30;92.60;;;;;;5038032;28;20184;-45
2022/09/02 10:57:10;;;;;;;2.30;1.27;;;26.30;92.60;;;;;;5020450;28;20208;-45
2022/09/02 10:59:59;;;;;;;3.47;1.10;;;26.40;94.60;;;;;;5026402;28;20724;-46
2022/09/02 11:02:37;;;;;;;2.30;1.10;;;26.50;93.00;;;;;;5037946;28;20239;-46
2022/09/02 11:05:16;;;;;;;2.83;1.17;;;26.60;93.80;;;;;;5038149;28;20229;-44
2022/09/02 11:08:08;;;;;;;3.63;1.10;;;26.60;91.50;;;;;;5037290;28;20172;-46
2022/09/02 11:10:42;;;;;;;2.50;0.97;;;26.70;92.40;;;;;;5037347;28;20201;-46
2022/09/02 11:13:24;;;;;;;8.23;1.10;;;26.80;91.10;;;;;;5037383;28;20166;-45
2022/09/02 11:16:03;;;;;;;2.37;0.93;;;26.80;90.10;;;;;;5037180;28;20189;-47
2022/09/02 11:18:43;;;;;;;3.03;1.13;;;26.80;90.70;;;;;;5037401;28;20165;-44
2022/09/02 11:21:18;;;;;;;2.63;0.90;;;26.80;91.60;;;;;;5037330;28;20201;-46
2022/09/02 11:23:52;;;;;;;1.80;0.90;;;26.90;92.20;;;;;;5037460;28;20219;-46
2022/09/02 11:26:32;;;;;;;2.27;1.10;;;27.00;93.50;;;;;;5037454;28;20158;-47
2022/09/02 11:29:15;;;;;;;6.03;1.03;;;27.00;93.30;;;;;;5037074;28;20203;-45
2022/09/02 11:31:57;;;;;;;4.07;1.10;;;27.00;93.50;;;;;;5037130;28;20287;-47
2022/09/02 11:34:33;;;;;;;2.55;0.90;;;27.10;92.10;;;;;;5036951;28;20153;-44
2022/09/02 11:37:07;;;;;;;3.47;1.33;;;27.20;91.50;;;;;;5037133;28;20168;-46
2022/09/02 11:39:50;;;;;;;0.90;0.90;;;27.30;92.60;;;;;;5036881;28;20165;-45
2022/09/02 11:42:19;;;;;;;4.20;1.00;;;27.30;91.90;;;;;;5037178;28;20260;-45
2022/09/02 11:45:09;;;;;;;13.70;1.95;;;27.40;93.10;;;;;;5036644;28;20184;-44
2022/09/02 11:47:53;;;;;;;4.63;1.38;;;27.50;89.70;;;;;;5037336;28;20172;-46
2022/09/02 11:50:37;;;;;;;4.88;1.33;;;27.50;91.50;;;;;;5037261;28;20200;-45
2022/09/02 11:53:25;;;;;;;2.37;1.20;;;27.50;90.40;;;;;;5037067;28;20173;-46
2022/09/02 11:56:06;;;;;;;8.00;1.20;;;27.50;88.50;;;;;;5036646;28;20669;-46
2022/09/02 11:58:39;;;;;;;1.60;0.90;;;27.50;89.60;;;;;;5036616;28;20172;-44
2022/09/02 12:01:30;;;;;;;1.92;1.27;;;27.60;90.00;;;;;;5036182;28;20197;-45
2022/09/02 12:03:59;;;;;;;2.63;1.15;;;27.70;90.20;;;;;;5018086;28;20173;-47
2022/09/02 12:06:25;;;;;;;2.50;1.10;;;27.70;89.90;;;;;;5035898;28;20169;-46
2022/09/02 12:08:52;;;;;;;3.80;1.15;;;27.80;85.40;;;;;;5035709;28;20204;-45
2022/09/02 12:11:36;;;;;;;2.10;0.90;;;27.80;90.10;;;;;;5035841;28;20200;-46
2022/09/02 12:14:03;;;;;;;2.13;0.90;;;27.90;89.90;;;;;;5035373;28;20192;-45
2022/09/02 12:16:28;;;;;;;1.83;0.85;;;27.90;87.40;;;;;;5035177;28;20200;-45
2022/09/02 12:18:54;;;;;;;8.20;1.10;;;28.00;89.20;;;;;;5035396;28;20311;-46
2022/09/02 12:21:20;;;;;;;3.40;1.38;;;28.00;86.90;;;;;;5035552;28;20737;-46
2022/09/02 12:23:55;;;;;;;1.85;0.90;;;28.10;85.50;;;;;;5035094;28;20192;-45
2022/09/02 12:26:36;;;;;;;1.60;1.00;;;28.10;81.40;;;;;;5034925;28;20180;-46
2022/09/02 12:29:17;;;;;;;6.20;1.88;;;28.00;85.60;;;;;;5035134;28;20224;-45
2022/09/02 12:31:51;;;;;;;1.88;1.02;;;28.00;88.00;;;;;;5035534;28;20681;-45
2022/09/02 12:34:19;;;;;;;5.63;1.10;;;28.10;88.00;;;;;;5035563;28;20171;-45
2022/09/02 12:36:50;;;;;;;3.97;1.02;;;28.10;86.60;;;;;;5035387;28;20635;-45
2022/09/02 12:39:22;;;;;;;4.10;1.02;;;28.10;86.40;;;;;;5035191;28;20161;-46
2022/09/02 12:42:11;;;;;;;4.03;1.20;;;28.10;85.80;;;;;;5035340;28;20209;-45
2022/09/02 12:45:05;;;;;;;3.47;1.08;;;28.20;88.30;;;;;;5019489;28;20169;-45
2022/09/02 12:47:48;;;;;;;1.77;1.00;;;28.20;84.70;;;;;;5035129;28;20188;-45
2022/09/02 12:50:32;;;;;;;1.55;1.20;;;28.30;86.20;;;;;;5035402;28;20192;-46
2022/09/02 12:53:33;;;;;;;1.40;0.98;;;28.30;87.90;;;;;;5035220;28;20197;-46
2022/09/02 12:56:22;;;;;;;6.53;0.73;;;28.30;83.80;;;;;;5031154;28;20184;-45
2022/09/02 12:58:53;;;;;;;4.93;1.05;;;28.30;88.30;;;;;;5039288;28;20169;-46
2022/09/02 13:01:40;;;;;;;4.80;1.10;;;28.40;87.60;;;;;;5038771;28;20524;-45
2022/09/02 13:04:25;;;;;;;5.57;1.00;;;28.50;88.20;;;;;;5039225;28;20208;-46
2022/09/02 13:07:04;;;;;;;1.70;1.00;;;28.50;87.80;;;;;;5039135;28;20168;-46
2022/09/02 13:09:51;;;;;;;1.80;1.30;;;28.50;81.00;;;;;;5039551;28;20208;-46